sensor_id;sensor_type;location;lat;lon;timestamp;pressure;altitude;pressure_sealevel;temperature
77414;BMP280;66486;49.992;19.164;2023-05-08T00:00:26;99792.63;;;6.90
77414;BMP280;66486;49.992;19.164;2023-05-08T00:03:12;99805.50;;;7.11
77414;BMP280;66486;49.992;19.164;2023-05-08T00:05:41;99803.16;;;7.06
77414;BMP280;66486;49.992;19.164;2023-05-08T00:08:07;99800.53;;;7.10
77414;BMP280;66486;49.992;19.164;2023-05-08T00:10:33;99800.97;;;7.15
77414;BMP280;66486;49.992;19.164;2023-05-08T00:12:59;99803.28;;;7.17
77414;BMP280;66486;49.992;19.164;2023-05-08T00:15:25;99809.94;;;7.30
77414;BMP280;66486;49.992;19.164;2023-05-08T00:17:50;99796.66;;;7.37
77414;BMP280;66486;49.992;19.164;2023-05-08T00:20:16;99803.34;;;7.20
77414;BMP280;66486;49.992;19.164;2023-05-08T00:22:42;99808.03;;;7.30
77414;BMP280;66486;49.992;19.164;2023-05-08T00:25:08;99803.50;;;7.34
77414;BMP280;66486;49.992;19.164;2023-05-08T00:27:34;99805.22;;;7.16
77414;BMP280;66486;49.992;19.164;2023-05-08T00:30:00;99801.94;;;7.33
77414;BMP280;66486;49.992;19.164;2023-05-08T00:32:26;99796.81;;;7.47
77414;BMP280;66486;49.992;19.164;2023-05-08T00:34:52;99789.94;;;7.20
77414;BMP280;66486;49.992;19.164;2023-05-08T00:37:18;99805.78;;;7.03
77414;BMP280;66486;49.992;19.164;2023-05-08T00:39:44;99806.88;;;6.98
77414;BMP280;66486;49.992;19.164;2023-05-08T00:42:10;99807.56;;;6.91
77414;BMP280;66486;49.992;19.164;2023-05-08T00:44:36;99792.31;;;6.95
77414;BMP280;66486;49.992;19.164;2023-05-08T00:47:05;99806.16;;;7.01
77414;BMP280;66486;49.992;19.164;2023-05-08T00:49:31;99802.56;;;6.90
77414;BMP280;66486;49.992;19.164;2023-05-08T00:51:59;99801.13;;;6.70
77414;BMP280;66486;49.992;19.164;2023-05-08T00:54:25;99806.97;;;6.79
77414;BMP280;66486;49.992;19.164;2023-05-08T00:56:51;99813.06;;;6.76
77414;BMP280;66486;49.992;19.164;2023-05-08T00:59:19;99805.22;;;6.90
77414;BMP280;66486;49.992;19.164;2023-05-08T01:01:47;99811.81;;;6.96
77414;BMP280;66486;49.992;19.164;2023-05-08T01:04:13;99819.19;;;7.06
77414;BMP280;66486;49.992;19.164;2023-05-08T01:06:39;99817.09;;;6.89
77414;BMP280;66486;49.992;19.164;2023-05-08T01:09:05;99816.50;;;7.03
77414;BMP280;66486;49.992;19.164;2023-05-08T01:15:12;99825.84;;;7.16
77414;BMP280;66486;49.992;19.164;2023-05-08T01:18:20;99821.41;;;7.27
77414;BMP280;66486;49.992;19.164;2023-05-08T01:20:25;99818.31;;;7.25
77414;BMP280;66486;49.992;19.164;2023-05-08T01:26:01;99823.97;;;6.93
77414;BMP280;66486;49.992;19.164;2023-05-08T01:28:55;99818.50;;;6.83
77414;BMP280;66486;49.992;19.164;2023-05-08T01:34:32;99817.78;;;6.86
77414;BMP280;66486;49.992;19.164;2023-05-08T01:37:03;99819.38;;;6.90
77414;BMP280;66486;49.992;19.164;2023-05-08T01:42:23;99823.47;;;7.11
77414;BMP280;66486;49.992;19.164;2023-05-08T01:44:54;99823.25;;;7.23
77414;BMP280;66486;49.992;19.164;2023-05-08T01:47:26;99821.72;;;6.92
77414;BMP280;66486;49.992;19.164;2023-05-08T01:50:00;99828.25;;;6.98
77414;BMP280;66486;49.992;19.164;2023-05-08T01:52:42;99822.00;;;6.87
77414;BMP280;66486;49.992;19.164;2023-05-08T01:55:19;99829.69;;;6.88
77414;BMP280;66486;49.992;19.164;2023-05-08T01:57:48;99818.53;;;6.86
77414;BMP280;66486;49.992;19.164;2023-05-08T02:00:18;99827.59;;;6.78
77414;BMP280;66486;49.992;19.164;2023-05-08T02:02:47;99826.22;;;6.88
77414;BMP280;66486;49.992;19.164;2023-05-08T02:05:14;99841.44;;;6.84
77414;BMP280;66486;49.992;19.164;2023-05-08T02:07:42;99838.28;;;6.78
77414;BMP280;66486;49.992;19.164;2023-05-08T02:10:11;99835.66;;;6.82
77414;BMP280;66486;49.992;19.164;2023-05-08T02:12:37;99831.63;;;6.91
77414;BMP280;66486;49.992;19.164;2023-05-08T02:15:06;99817.03;;;6.85
77414;BMP280;66486;49.992;19.164;2023-05-08T02:17:35;99829.56;;;6.81
77414;BMP280;66486;49.992;19.164;2023-05-08T02:20:03;99832.13;;;6.74
77414;BMP280;66486;49.992;19.164;2023-05-08T02:22:31;99834.03;;;6.74
77414;BMP280;66486;49.992;19.164;2023-05-08T02:24:57;99845.19;;;6.79
77414;BMP280;66486;49.992;19.164;2023-05-08T02:27:26;99838.25;;;6.75
77414;BMP280;66486;49.992;19.164;2023-05-08T02:29:53;99843.19;;;6.73
77414;BMP280;66486;49.992;19.164;2023-05-08T02:32:24;99841.41;;;6.58
77414;BMP280;66486;49.992;19.164;2023-05-08T02:34:52;99842.13;;;6.77
77414;BMP280;66486;49.992;19.164;2023-05-08T02:37:19;99839.84;;;6.57
77414;BMP280;66486;49.992;19.164;2023-05-08T02:39:47;99837.56;;;6.81
77414;BMP280;66486;49.992;19.164;2023-05-08T02:42:14;99838.78;;;6.61
77414;BMP280;66486;49.992;19.164;2023-05-08T02:44:40;99843.38;;;6.61
77414;BMP280;66486;49.992;19.164;2023-05-08T02:47:26;99851.22;;;6.50
77414;BMP280;66486;49.992;19.164;2023-05-08T02:49:56;99842.34;;;6.46
77414;BMP280;66486;49.992;19.164;2023-05-08T02:52:31;99851.88;;;6.66
77414;BMP280;66486;49.992;19.164;2023-05-08T02:55:02;99842.84;;;6.52
77414;BMP280;66486;49.992;19.164;2023-05-08T02:57:45;99849.09;;;6.59
77414;BMP280;66486;49.992;19.164;2023-05-08T03:00:21;99845.25;;;6.60
77414;BMP280;66486;49.992;19.164;2023-05-08T03:03:12;99840.00;;;6.90
77414;BMP280;66486;49.992;19.164;2023-05-08T03:05:44;99844.97;;;6.65
77414;BMP280;66486;49.992;19.164;2023-05-08T03:08:18;99844.22;;;6.65
77414;BMP280;66486;49.992;19.164;2023-05-08T03:10:48;99845.25;;;6.60
77414;BMP280;66486;49.992;19.164;2023-05-08T03:13:17;99852.41;;;6.53
77414;BMP280;66486;49.992;19.164;2023-05-08T03:15:48;99847.88;;;6.57
77414;BMP280;66486;49.992;19.164;2023-05-08T03:18:20;99856.44;;;6.43
77414;BMP280;66486;49.992;19.164;2023-05-08T03:20:50;99855.31;;;6.67
77414;BMP280;66486;49.992;19.164;2023-05-08T03:23:19;99855.28;;;6.63
77414;BMP280;66486;49.992;19.164;2023-05-08T03:25:46;99861.81;;;6.66
77414;BMP280;66486;49.992;19.164;2023-05-08T03:28:13;99861.81;;;6.66
77414;BMP280;66486;49.992;19.164;2023-05-08T03:30:41;99859.63;;;6.75
77414;BMP280;66486;49.992;19.164;2023-05-08T03:33:08;99863.72;;;6.69
77414;BMP280;66486;49.992;19.164;2023-05-08T03:35:37;99860.78;;;6.51
77414;BMP280;66486;49.992;19.164;2023-05-08T03:38:04;99868.38;;;6.49
77414;BMP280;66486;49.992;19.164;2023-05-08T03:40:34;99868.66;;;6.67
77414;BMP280;66486;49.992;19.164;2023-05-08T03:43:05;99858.94;;;6.55
77414;BMP280;66486;49.992;19.164;2023-05-08T03:45:34;99867.19;;;6.47
77414;BMP280;66486;49.992;19.164;2023-05-08T03:48:03;99863.69;;;6.43
77414;BMP280;66486;49.992;19.164;2023-05-08T03:50:30;99863.03;;;6.49
77414;BMP280;66486;49.992;19.164;2023-05-08T03:52:57;99858.84;;;6.48
77414;BMP280;66486;49.992;19.164;2023-05-08T03:55:24;99866.84;;;6.48
77414;BMP280;66486;49.992;19.164;2023-05-08T04:01:06;99868.47;;;6.56
77414;BMP280;66486;49.992;19.164;2023-05-08T04:06:21;99859.06;;;6.62
77414;BMP280;66486;49.992;19.164;2023-05-08T04:09:18;99870.53;;;6.63
77414;BMP280;66486;49.992;19.164;2023-05-08T04:12:04;99875.66;;;6.49
77414;BMP280;66486;49.992;19.164;2023-05-08T04:14:47;99873.66;;;6.46
77414;BMP280;66486;49.992;19.164;2023-05-08T04:17:16;99874.44;;;6.46
77414;BMP280;66486;49.992;19.164;2023-05-08T04:19:50;99877.47;;;6.45
77414;BMP280;66486;49.992;19.164;2023-05-08T04:22:19;99876.09;;;6.54
77414;BMP280;66486;49.992;19.164;2023-05-08T04:24:49;99891.16;;;6.62
77414;BMP280;66486;49.992;19.164;2023-05-08T04:27:17;99879.91;;;6.53
77414;BMP280;66486;49.992;19.164;2023-05-08T04:29:43;99890.31;;;6.58
77414;BMP280;66486;49.992;19.164;2023-05-08T04:32:10;99894.88;;;6.58
77414;BMP280;66486;49.992;19.164;2023-05-08T04:34:36;99889.09;;;6.52
77414;BMP280;66486;49.992;19.164;2023-05-08T04:37:05;99886.78;;;6.54
77414;BMP280;66486;49.992;19.164;2023-05-08T04:39:32;99889.75;;;6.49
77414;BMP280;66486;49.992;19.164;2023-05-08T04:41:57;99901.16;;;6.46
77414;BMP280;66486;49.992;19.164;2023-05-08T04:44:28;99901.06;;;6.39
77414;BMP280;66486;49.992;19.164;2023-05-08T04:46:54;99919.03;;;6.42
77414;BMP280;66486;49.992;19.164;2023-05-08T04:49:20;99923.56;;;6.61
77414;BMP280;66486;49.992;19.164;2023-05-08T04:51:46;99920.00;;;6.76
77414;BMP280;66486;49.992;19.164;2023-05-08T04:54:12;99920.91;;;6.61
77414;BMP280;66486;49.992;19.164;2023-05-08T04:56:38;99921.28;;;6.59
77414;BMP280;66486;49.992;19.164;2023-05-08T04:59:04;99927.41;;;6.60
77414;BMP280;66486;49.992;19.164;2023-05-08T05:01:31;99916.34;;;6.61
77414;BMP280;66486;49.992;19.164;2023-05-08T05:03:57;99916.06;;;6.66
77414;BMP280;66486;49.992;19.164;2023-05-08T05:06:23;99933.94;;;6.85
77414;BMP280;66486;49.992;19.164;2023-05-08T05:08:49;99929.25;;;6.82
77414;BMP280;66486;49.992;19.164;2023-05-08T05:11:15;99930.41;;;6.81
77414;BMP280;66486;49.992;19.164;2023-05-08T05:13:41;99929.34;;;6.85
77414;BMP280;66486;49.992;19.164;2023-05-08T05:16:06;99932.28;;;6.77
77414;BMP280;66486;49.992;19.164;2023-05-08T05:18:33;99941.59;;;6.86
77414;BMP280;66486;49.992;19.164;2023-05-08T05:20:58;99950.66;;;6.82
77414;BMP280;66486;49.992;19.164;2023-05-08T05:23:24;99948.41;;;6.84
77414;BMP280;66486;49.992;19.164;2023-05-08T05:25:50;99949.53;;;7.06
77414;BMP280;66486;49.992;19.164;2023-05-08T05:28:16;99953.81;;;7.10
77414;BMP280;66486;49.992;19.164;2023-05-08T05:30:45;99951.94;;;7.11
77414;BMP280;66486;49.992;19.164;2023-05-08T05:33:12;99949.53;;;7.06
77414;BMP280;66486;49.992;19.164;2023-05-08T05:35:37;99954.06;;;7.02
77414;BMP280;66486;49.992;19.164;2023-05-08T05:38:03;99952.03;;;7.18
77414;BMP280;66486;49.992;19.164;2023-05-08T05:40:30;99955.59;;;7.25
77414;BMP280;66486;49.992;19.164;2023-05-08T05:42:56;99947.84;;;7.20
77414;BMP280;66486;49.992;19.164;2023-05-08T05:45:22;99956.75;;;7.54
77414;BMP280;66486;49.992;19.164;2023-05-08T05:47:48;99959.16;;;7.63
77414;BMP280;66486;49.992;19.164;2023-05-08T05:50:17;99954.56;;;7.63
77414;BMP280;66486;49.992;19.164;2023-05-08T05:52:43;99952.56;;;7.57
77414;BMP280;66486;49.992;19.164;2023-05-08T05:55:09;99961.25;;;7.76
77414;BMP280;66486;49.992;19.164;2023-05-08T05:57:35;99963.97;;;7.50
77414;BMP280;66486;49.992;19.164;2023-05-08T06:00:03;99971.13;;;7.69
77414;BMP280;66486;49.992;19.164;2023-05-08T06:02:29;99982.03;;;7.86
77414;BMP280;66486;49.992;19.164;2023-05-08T06:04:55;99985.84;;;7.85
77414;BMP280;66486;49.992;19.164;2023-05-08T06:07:21;99988.25;;;7.64
77414;BMP280;66486;49.992;19.164;2023-05-08T06:09:47;99986.91;;;7.77
77414;BMP280;66486;49.992;19.164;2023-05-08T06:12:13;99993.59;;;7.90
77414;BMP280;66486;49.992;19.164;2023-05-08T06:14:39;99994.66;;;8.16
77414;BMP280;66486;49.992;19.164;2023-05-08T06:17:05;99990.22;;;8.27
77414;BMP280;66486;49.992;19.164;2023-05-08T06:19:31;99988.81;;;8.43
77414;BMP280;66486;49.992;19.164;2023-05-08T06:21:57;99992.50;;;8.28
77414;BMP280;66486;49.992;19.164;2023-05-08T06:24:23;99992.38;;;8.18
77414;BMP280;66486;49.992;19.164;2023-05-08T06:26:49;99990.22;;;8.27
77414;BMP280;66486;49.992;19.164;2023-05-08T06:29:15;99988.16;;;8.50
77414;BMP280;66486;49.992;19.164;2023-05-08T06:31:41;99998.09;;;8.49
77414;BMP280;66486;49.992;19.164;2023-05-08T06:34:07;99996.72;;;8.29
77414;BMP280;66486;49.992;19.164;2023-05-08T06:36:33;99991.06;;;8.34
77414;BMP280;66486;49.992;19.164;2023-05-08T06:38:59;100003.44;;;8.86
77414;BMP280;66486;49.992;19.164;2023-05-08T06:41:25;100005.63;;;8.73
77414;BMP280;66486;49.992;19.164;2023-05-08T06:43:51;100010.59;;;8.71
77414;BMP280;66486;49.992;19.164;2023-05-08T06:46:17;100005.63;;;8.37
77414;BMP280;66486;49.992;19.164;2023-05-08T06:48:43;100016.31;;;8.70
77414;BMP280;66486;49.992;19.164;2023-05-08T06:51:09;100019.00;;;8.70
77414;BMP280;66486;49.992;19.164;2023-05-08T06:53:35;100017.41;;;8.65
77414;BMP280;66486;49.992;19.164;2023-05-08T06:56:01;100022.22;;;8.86
77414;BMP280;66486;49.992;19.164;2023-05-08T06:58:27;100022.09;;;9.16
77414;BMP280;66486;49.992;19.164;2023-05-08T07:00:53;100023.97;;;9.12
77414;BMP280;66486;49.992;19.164;2023-05-08T07:03:19;100029.34;;;9.15
77414;BMP280;66486;49.992;19.164;2023-05-08T07:05:45;100023.16;;;9.08
77414;BMP280;66486;49.992;19.164;2023-05-08T07:08:11;100021.81;;;8.88
77414;BMP280;66486;49.992;19.164;2023-05-08T07:10:36;100036.50;;;8.97
77414;BMP280;66486;49.992;19.164;2023-05-08T07:13:03;100030.47;;;8.67
77414;BMP280;66486;49.992;19.164;2023-05-08T07:15:30;100034.41;;;8.77
77414;BMP280;66486;49.992;19.164;2023-05-08T07:17:56;100021.91;;;8.95
77414;BMP280;66486;49.992;19.164;2023-05-08T07:20:22;100034.63;;;8.61
77414;BMP280;66486;49.992;19.164;2023-05-08T07:22:49;100035.50;;;8.72
77414;BMP280;66486;49.992;19.164;2023-05-08T07:25:15;100039.75;;;9.20
77414;BMP280;66486;49.992;19.164;2023-05-08T07:27:42;100045.72;;;9.00
77414;BMP280;66486;49.992;19.164;2023-05-08T07:30:08;100040.69;;;8.95
77414;BMP280;66486;49.992;19.164;2023-05-08T07:32:35;100044.78;;;8.82
77414;BMP280;66486;49.992;19.164;2023-05-08T07:35:01;100043.81;;;9.00
77414;BMP280;66486;49.992;19.164;2023-05-08T07:37:28;100043.19;;;9.17
77414;BMP280;66486;49.992;19.164;2023-05-08T07:39:54;100049.31;;;9.18
77414;BMP280;66486;49.992;19.164;2023-05-08T07:42:20;100048.31;;;8.89
77414;BMP280;66486;49.992;19.164;2023-05-08T07:44:46;100053.47;;;9.08
77414;BMP280;66486;49.992;19.164;2023-05-08T07:47:13;100054.78;;;9.28
77414;BMP280;66486;49.992;19.164;2023-05-08T07:49:38;100049.97;;;9.01
77414;BMP280;66486;49.992;19.164;2023-05-08T07:52:05;100053.53;;;9.15
77414;BMP280;66486;49.992;19.164;2023-05-08T07:54:30;100057.94;;;9.38
77414;BMP280;66486;49.992;19.164;2023-05-08T07:56:56;100055.34;;;9.52
77414;BMP280;66486;49.992;19.164;2023-05-08T07:59:22;100068.22;;;9.90
77414;BMP280;66486;49.992;19.164;2023-05-08T08:01:48;100054.78;;;9.90
77414;BMP280;66486;49.992;19.164;2023-05-08T08:04:14;100049.59;;;10.29
77414;BMP280;66486;49.992;19.164;2023-05-08T08:06:41;100052.81;;;9.80
77414;BMP280;66486;49.992;19.164;2023-05-08T08:09:06;100053.63;;;9.84
77414;BMP280;66486;49.992;19.164;2023-05-08T08:11:33;100056.44;;;10.16
77414;BMP280;66486;49.992;19.164;2023-05-08T08:13:59;100050.78;;;10.56
77414;BMP280;66486;49.992;19.164;2023-05-08T08:16:25;100047.75;;;10.61
77414;BMP280;66486;49.992;19.164;2023-05-08T08:18:51;100045.38;;;10.38
77414;BMP280;66486;49.992;19.164;2023-05-08T08:21:20;100055.72;;;10.29
77414;BMP280;66486;49.992;19.164;2023-05-08T08:23:46;100056.41;;;10.09
77414;BMP280;66486;49.992;19.164;2023-05-08T08:26:12;100057.47;;;9.86
77414;BMP280;66486;49.992;19.164;2023-05-08T08:28:38;100065.25;;;10.09
77414;BMP280;66486;49.992;19.164;2023-05-08T08:31:04;100059.88;;;10.09
77414;BMP280;66486;49.992;19.164;2023-05-08T08:33:30;100074.19;;;10.38
77414;BMP280;66486;49.992;19.164;2023-05-08T08:35:56;100061.13;;;10.33
77414;BMP280;66486;49.992;19.164;2023-05-08T08:38:22;100060.06;;;10.66
77414;BMP280;66486;49.992;19.164;2023-05-08T08:40:48;100065.06;;;10.85
77414;BMP280;66486;49.992;19.164;2023-05-08T08:43:14;100068.16;;;10.83
77414;BMP280;66486;49.992;19.164;2023-05-08T08:45:40;100059.72;;;10.95
77414;BMP280;66486;49.992;19.164;2023-05-08T08:48:09;100066.63;;;10.86
77414;BMP280;66486;49.992;19.164;2023-05-08T08:50:41;100065.47;;;10.87
77414;BMP280;66486;49.992;19.164;2023-05-08T08:53:20;100068.16;;;10.83
77414;BMP280;66486;49.992;19.164;2023-05-08T08:55:51;100068.91;;;10.66
77414;BMP280;66486;49.992;19.164;2023-05-08T08:58:24;100073.03;;;10.28
77414;BMP280;66486;49.992;19.164;2023-05-08T09:00:52;100066.59;;;10.61
77414;BMP280;66486;49.992;19.164;2023-05-08T09:03:20;100071.63;;;10.73
77414;BMP280;66486;49.992;19.164;2023-05-08T09:05:47;100078.00;;;10.26
77414;BMP280;66486;49.992;19.164;2023-05-08T09:08:17;100076.88;;;10.34
77414;BMP280;66486;49.992;19.164;2023-05-08T09:10:45;100088.34;;;10.17
77414;BMP280;66486;49.992;19.164;2023-05-08T09:13:10;100077.66;;;10.38
77414;BMP280;66486;49.992;19.164;2023-05-08T09:15:37;100085.09;;;10.70
77414;BMP280;66486;49.992;19.164;2023-05-08T09:18:03;100078.16;;;10.76
77414;BMP280;66486;49.992;19.164;2023-05-08T09:20:29;100070.84;;;10.73
77414;BMP280;66486;49.992;19.164;2023-05-08T09:22:56;100087.78;;;10.91
77414;BMP280;66486;49.992;19.164;2023-05-08T09:25:22;100087.78;;;10.98
77414;BMP280;66486;49.992;19.164;2023-05-08T09:27:48;100075.09;;;11.02
77414;BMP280;66486;49.992;19.164;2023-05-08T09:30:14;100075.84;;;11.38
77414;BMP280;66486;49.992;19.164;2023-05-08T09:32:42;100070.81;;;11.64
77414;BMP280;66486;49.992;19.164;2023-05-08T09:35:10;100076.66;;;11.31
77414;BMP280;66486;49.992;19.164;2023-05-08T09:37:38;100074.69;;;11.14
77414;BMP280;66486;49.992;19.164;2023-05-08T09:40:18;100088.16;;;11.10
77414;BMP280;66486;49.992;19.164;2023-05-08T09:42:45;100085.50;;;11.28
77414;BMP280;66486;49.992;19.164;2023-05-08T09:45:25;100085.41;;;11.77
77414;BMP280;66486;49.992;19.164;2023-05-08T09:47:51;100075.34;;;11.85
77414;BMP280;66486;49.992;19.164;2023-05-08T09:50:17;100068.28;;;12.23
77414;BMP280;66486;49.992;19.164;2023-05-08T09:52:47;100069.81;;;12.24
77414;BMP280;66486;49.992;19.164;2023-05-08T09:55:14;100077.50;;;12.29
77414;BMP280;66486;49.992;19.164;2023-05-08T09:57:57;100072.72;;;11.74
77414;BMP280;66486;49.992;19.164;2023-05-08T10:00:25;100079.19;;;11.91
77414;BMP280;66486;49.992;19.164;2023-05-08T10:02:55;100069.19;;;11.88
77414;BMP280;66486;49.992;19.164;2023-05-08T10:05:30;100072.06;;;12.39
77414;BMP280;66486;49.992;19.164;2023-05-08T10:07:57;100069.06;;;12.82
77414;BMP280;66486;49.992;19.164;2023-05-08T10:10:26;100063.88;;;12.53
77414;BMP280;66486;49.992;19.164;2023-05-08T10:12:54;100057.16;;;12.10
77414;BMP280;66486;49.992;19.164;2023-05-08T10:15:27;100069.81;;;12.24
77414;BMP280;66486;49.992;19.164;2023-05-08T10:18:04;100069.00;;;12.34
77414;BMP280;66486;49.992;19.164;2023-05-08T10:20:49;100071.28;;;12.39
77414;BMP280;66486;49.992;19.164;2023-05-08T10:23:16;100073.16;;;12.52
77414;BMP280;66486;49.992;19.164;2023-05-08T10:25:45;100064.81;;;12.84
77414;BMP280;66486;49.992;19.164;2023-05-08T10:30:59;100064.50;;;12.68
77414;BMP280;66486;49.992;19.164;2023-05-08T10:33:29;100060.81;;;13.40
77414;BMP280;66486;49.992;19.164;2023-05-08T10:35:59;100069.94;;;13.53
77414;BMP280;66486;49.992;19.164;2023-05-08T10:38:25;100057.53;;;12.74
77414;BMP280;66486;49.992;19.164;2023-05-08T10:40:53;100067.88;;;12.24
77414;BMP280;66486;49.992;19.164;2023-05-08T10:43:28;100061.44;;;12.04
77414;BMP280;66486;49.992;19.164;2023-05-08T10:45:55;100060.25;;;11.98
77414;BMP280;66486;49.992;19.164;2023-05-08T10:48:35;100055.94;;;12.22
77414;BMP280;66486;49.992;19.164;2023-05-08T10:51:10;100056.03;;;12.04
77414;BMP280;66486;49.992;19.164;2023-05-08T10:53:43;100050.47;;;12.36
77414;BMP280;66486;49.992;19.164;2023-05-08T10:56:11;100047.16;;;13.13
77414;BMP280;66486;49.992;19.164;2023-05-08T10:58:37;100054.72;;;13.32
77414;BMP280;66486;49.992;19.164;2023-05-08T11:03:55;100058.28;;;13.22
77414;BMP280;66486;49.992;19.164;2023-05-08T11:06:45;100056.88;;;13.11
77414;BMP280;66486;49.992;19.164;2023-05-08T11:09:18;100063.69;;;13.22
77414;BMP280;66486;49.992;19.164;2023-05-08T11:11:53;100058.34;;;12.71
77414;BMP280;66486;49.992;19.164;2023-05-08T11:14:25;100059.19;;;13.09
77414;BMP280;66486;49.992;19.164;2023-05-08T11:19:27;100055.31;;;13.10
77414;BMP280;66486;49.992;19.164;2023-05-08T11:22:20;100058.44;;;13.05
77414;BMP280;66486;49.992;19.164;2023-05-08T11:27:17;100048.84;;;12.49
77414;BMP280;66486;49.992;19.164;2023-05-08T11:30:17;100055.53;;;12.30
77414;BMP280;66486;49.992;19.164;2023-05-08T11:35:40;100055.81;;;12.94
77414;BMP280;66486;49.992;19.164;2023-05-08T11:38:17;100051.53;;;13.04
77414;BMP280;66486;49.992;19.164;2023-05-08T11:40:47;100048.50;;;12.95
77414;BMP280;66486;49.992;19.164;2023-05-08T11:46:18;100042.19;;;12.60
77414;BMP280;66486;49.992;19.164;2023-05-08T11:48:45;100049.75;;;12.83
77414;BMP280;66486;49.992;19.164;2023-05-08T11:51:11;100036.69;;;12.78
77414;BMP280;66486;49.992;19.164;2023-05-08T11:53:38;100035.28;;;13.07
77414;BMP280;66486;49.992;19.164;2023-05-08T11:56:04;100038.09;;;13.34
77414;BMP280;66486;49.992;19.164;2023-05-08T11:58:30;100050.38;;;13.42
77414;BMP280;66486;49.992;19.164;2023-05-08T12:00:56;100046.25;;;13.30
77414;BMP280;66486;49.992;19.164;2023-05-08T12:03:23;100045.66;;;13.09
77414;BMP280;66486;49.992;19.164;2023-05-08T12:05:57;100035.69;;;13.02
77414;BMP280;66486;49.992;19.164;2023-05-08T12:08:24;100033.38;;;12.56
77414;BMP280;66486;49.992;19.164;2023-05-08T12:10:51;100046.94;;;12.94
77414;BMP280;66486;49.992;19.164;2023-05-08T12:13:20;100041.75;;;13.13
77414;BMP280;66486;49.992;19.164;2023-05-08T12:15:48;100053.09;;;13.76
77414;BMP280;66486;49.992;19.164;2023-05-08T12:18:15;100036.25;;;13.95
77414;BMP280;66486;49.992;19.164;2023-05-08T12:20:44;100031.56;;;13.99
77414;BMP280;66486;49.992;19.164;2023-05-08T12:23:11;100047.50;;;13.90
77414;BMP280;66486;49.992;19.164;2023-05-08T12:25:38;100046.03;;;13.48
77414;BMP280;66486;49.992;19.164;2023-05-08T12:28:11;100049.28;;;13.36
77414;BMP280;66486;49.992;19.164;2023-05-08T12:30:37;100040.31;;;13.05
77414;BMP280;66486;49.992;19.164;2023-05-08T12:33:03;100032.72;;;13.64
77414;BMP280;66486;49.992;19.164;2023-05-08T12:35:30;100032.38;;;14.23
77414;BMP280;66486;49.992;19.164;2023-05-08T12:38:05;100022.34;;;14.20
77414;BMP280;66486;49.992;19.164;2023-05-08T12:43:00;100033.88;;;13.97
77414;BMP280;66486;49.992;19.164;2023-05-08T12:45:29;100026.47;;;13.71
77414;BMP280;66486;49.992;19.164;2023-05-08T12:48:01;100030.09;;;14.18
77414;BMP280;66486;49.992;19.164;2023-05-08T12:50:28;100025.38;;;14.25
77414;BMP280;66486;49.992;19.164;2023-05-08T12:53:05;100029.63;;;13.66
77414;BMP280;66486;49.992;19.164;2023-05-08T12:55:33;100032.56;;;13.45
77414;BMP280;66486;49.992;19.164;2023-05-08T12:58:05;100030.22;;;13.47
77414;BMP280;66486;49.992;19.164;2023-05-08T13:00:39;100031.47;;;14.06
77414;BMP280;66486;49.992;19.164;2023-05-08T13:03:07;100026.78;;;14.33
77414;BMP280;66486;49.992;19.164;2023-05-08T13:05:34;100024.13;;;14.80
77414;BMP280;66486;49.992;19.164;2023-05-08T13:08:03;100016.00;;;15.22
77414;BMP280;66486;49.992;19.164;2023-05-08T13:10:47;100012.66;;;14.92
77414;BMP280;66486;49.992;19.164;2023-05-08T13:13:15;100013.13;;;15.10
77414;BMP280;66486;49.992;19.164;2023-05-08T13:15:41;100015.38;;;14.92
77414;BMP280;66486;49.992;19.164;2023-05-08T13:18:08;100011.97;;;14.88
77414;BMP280;66486;49.992;19.164;2023-05-08T13:20:34;100034.63;;;14.51
77414;BMP280;66486;49.992;19.164;2023-05-08T13:23:01;100015.88;;;14.14
77414;BMP280;66486;49.992;19.164;2023-05-08T13:25:29;100022.81;;;14.41
77414;BMP280;66486;49.992;19.164;2023-05-08T13:27:55;100014.22;;;14.20
77414;BMP280;66486;49.992;19.164;2023-05-08T13:30:21;100020.13;;;14.38
77414;BMP280;66486;49.992;19.164;2023-05-08T13:32:48;100018.78;;;13.96
77414;BMP280;66486;49.992;19.164;2023-05-08T13:35:14;100019.38;;;14.11
77414;BMP280;66486;49.992;19.164;2023-05-08T13:37:40;100017.94;;;14.29
77414;BMP280;66486;49.992;19.164;2023-05-08T13:40:07;100020.59;;;14.59
77414;BMP280;66486;49.992;19.164;2023-05-08T13:42:33;100018.66;;;15.03
77414;BMP280;66486;49.992;19.164;2023-05-08T13:44:59;100009.44;;;15.20
77414;BMP280;66486;49.992;19.164;2023-05-08T13:47:26;100008.22;;;15.44
77414;BMP280;66486;49.992;19.164;2023-05-08T13:49:52;100007.63;;;15.52
77414;BMP280;66486;49.992;19.164;2023-05-08T13:52:18;99998.41;;;15.11
77414;BMP280;66486;49.992;19.164;2023-05-08T13:54:44;100009.38;;;14.81
77414;BMP280;66486;49.992;19.164;2023-05-08T13:57:10;100000.75;;;14.43
77414;BMP280;66486;49.992;19.164;2023-05-08T13:59:36;100008.03;;;14.46
77414;BMP280;66486;49.992;19.164;2023-05-08T14:02:02;100001.47;;;14.20
77414;BMP280;66486;49.992;19.164;2023-05-08T14:04:28;100001.47;;;14.20
77414;BMP280;66486;49.992;19.164;2023-05-08T14:06:54;100010.66;;;14.49
77414;BMP280;66486;49.992;19.164;2023-05-08T14:09:20;100005.25;;;14.49
77414;BMP280;66486;49.992;19.164;2023-05-08T14:11:46;100000.66;;;14.69
77414;BMP280;66486;49.992;19.164;2023-05-08T14:14:12;99997.38;;;14.82
77414;BMP280;66486;49.992;19.164;2023-05-08T14:16:38;100003.25;;;14.76
77414;BMP280;66486;49.992;19.164;2023-05-08T14:19:04;100000.78;;;14.62
77414;BMP280;66486;49.992;19.164;2023-05-08T14:21:30;99989.47;;;14.67
77414;BMP280;66486;49.992;19.164;2023-05-08T14:23:56;99999.31;;;14.35
77414;BMP280;66486;49.992;19.164;2023-05-08T14:26:22;99998.13;;;14.09
77414;BMP280;66486;49.992;19.164;2023-05-08T14:28:48;99998.34;;;13.65
77414;BMP280;66486;49.992;19.164;2023-05-08T14:31:14;100002.81;;;13.78
77414;BMP280;66486;49.992;19.164;2023-05-08T14:33:40;99992.66;;;13.86
77414;BMP280;66486;49.992;19.164;2023-05-08T14:36:07;99994.84;;;13.64
77414;BMP280;66486;49.992;19.164;2023-05-08T14:38:33;99991.81;;;13.62
77414;BMP280;66486;49.992;19.164;2023-05-08T14:40:59;100000.50;;;13.77